Time;durP1;ratioP1;P1;durP2;ratioP2;P2;SDS_P1;SDS_P2;PMS_P1;PMS_P2;Temp;Humidity;BMP_temperature;BMP_pressure;BME280_temperature;BME280_humidity;BME280_pressure;Samples;Min_cycle;Max_cycle;Signal;HPM_P1;HPM_P2
2022/08/17 00:01:06;;;;;;;47.10;32.42;;;19.90;99.90;;;;;;5099973;28;20046;-73
2022/08/17 00:03:37;;;;;;;48.03;33.95;;;19.90;99.90;;;;;;5070314;28;20102;-73
2022/08/17 00:06:11;;;;;;;45.72;33.75;;;19.80;99.90;;;;;;5104700;28;20075;-72
2022/08/17 00:08:55;;;;;;;43.42;33.72;;;19.80;99.90;;;;;;5088365;28;20047;-72
2022/08/17 00:11:27;;;;;;;41.30;33.40;;;19.70;99.90;;;;;;5072303;28;20127;-72
2022/08/17 00:14:00;;;;;;;46.58;34.20;;;19.70;99.90;;;;;;5085993;28;20039;-73
2022/08/17 00:16:32;;;;;;;41.72;33.78;;;19.60;99.90;;;;;;5073382;28;20054;-72
2022/08/17 00:19:00;;;;;;;41.50;32.38;;;19.60;99.90;;;;;;5089615;28;20039;-75
2022/08/17 00:21:27;;;;;;;46.25;34.88;;;19.60;99.90;;;;;;5088697;28;20036;-73
2022/08/17 00:23:53;;;;;;;45.13;33.20;;;19.60;99.90;;;;;;5082723;28;20028;-73
2022/08/17 00:26:20;;;;;;;40.15;32.45;;;19.50;99.90;;;;;;5070059;28;20187;-73
2022/08/17 00:28:46;;;;;;;45.72;34.10;;;19.50;99.90;;;;;;5096511;28;20032;-72
2022/08/17 00:31:12;;;;;;;44.22;33.33;;;19.50;99.90;;;;;;5086498;28;20429;-72
2022/08/17 00:33:39;;;;;;;44.28;34.75;;;19.50;99.90;;;;;;5098150;28;20176;-73
2022/08/17 00:36:06;;;;;;;45.05;34.03;;;19.50;99.90;;;;;;5089030;28;20404;-70
2022/08/17 00:38:33;;;;;;;45.25;32.67;;;19.50;99.90;;;;;;5086484;28;20039;-74
2022/08/17 00:41:02;;;;;;;41.33;32.47;;;19.40;99.90;;;;;;5089393;28;20044;-74
2022/08/17 00:43:39;;;;;;;44.83;34.42;;;19.40;99.90;;;;;;5088451;28;20109;-75
2022/08/17 00:46:12;;;;;;;45.85;32.50;;;19.40;99.90;;;;;;5083321;28;20047;-75
2022/08/17 00:48:38;;;;;;;46.38;33.97;;;19.40;99.90;;;;;;5083459;28;20046;-72
2022/08/17 00:51:14;;;;;;;44.92;33.53;;;19.40;99.90;;;;;;5072183;28;20052;-72
2022/08/17 00:53:45;;;;;;;49.03;34.95;;;19.30;99.90;;;;;;5087039;28;20075;-73
2022/08/17 00:56:15;;;;;;;41.25;33.03;;;19.30;99.90;;;;;;5072318;28;20174;-73
2022/08/17 00:58:41;;;;;;;44.95;33.58;;;19.20;99.90;;;;;;5102709;28;20464;-73
2022/08/17 01:01:09;;;;;;;60.03;38.90;;;19.10;99.90;;;;;;5092233;28;20135;-75
2022/08/17 01:03:37;;;;;;;52.33;36.53;;;19.20;99.90;;;;;;5091212;28;20044;-73
2022/08/17 01:06:04;;;;;;;50.65;36.85;;;19.20;99.90;;;;;;5071894;28;20393;-73
2022/08/17 01:08:30;;;;;;;53.63;37.53;;;19.20;99.90;;;;;;5067055;28;20052;-73
2022/08/17 01:11:01;;;;;;;50.17;34.72;;;19.20;99.90;;;;;;5101699;28;20504;-72
2022/08/17 01:13:31;;;;;;;51.55;38.00;;;19.20;99.90;;;;;;5088224;28;20067;-73
2022/08/17 01:16:14;;;;;;;50.55;37.33;;;19.10;99.90;;;;;;5069402;28;20061;-74
2022/08/17 01:18:41;;;;;;;60.92;38.97;;;19.10;99.90;;;;;;5064499;28;20481;-75
2022/08/17 01:21:14;;;;;;;51.45;35.85;;;19.20;99.90;;;;;;5070704;28;20048;-73
2022/08/17 01:23:41;;;;;;;51.95;36.33;;;19.20;99.90;;;;;;5084696;28;20050;-73
2022/08/17 01:26:07;;;;;;;56.58;39.67;;;19.10;99.90;;;;;;5086636;28;20082;-72
2022/08/17 01:28:35;;;;;;;56.92;36.38;;;19.10;99.90;;;;;;5087323;28;20043;-73
2022/08/17 01:31:03;;;;;;;49.75;34.95;;;19.20;99.90;;;;;;5085008;28;20067;-72
2022/08/17 01:33:29;;;;;;;45.83;34.38;;;19.10;99.90;;;;;;5085359;28;20075;-75
2022/08/17 01:35:55;;;;;;;45.55;34.05;;;19.10;99.90;;;;;;5074969;28;20063;-74
2022/08/17 01:38:22;;;;;;;44.08;32.78;;;19.10;99.90;;;;;;5089347;28;20044;-74
2022/08/17 01:40:56;;;;;;;49.95;33.05;;;19.10;99.90;;;;;;5080430;28;20044;-71
2022/08/17 01:43:26;;;;;;;42.17;31.08;;;19.10;99.90;;;;;;5103057;28;20182;-74
2022/08/17 01:45:55;;;;;;;44.67;32.22;;;19.00;99.90;;;;;;5071415;28;20090;-73
2022/08/17 01:48:22;;;;;;;41.50;31.75;;;19.00;99.90;;;;;;5053638;28;20048;-74
2022/08/17 01:50:50;;;;;;;44.58;32.35;;;18.90;99.90;;;;;;5089395;28;20138;-74
2022/08/17 01:53:22;;;;;;;44.78;32.20;;;18.90;99.90;;;;;;5105478;28;20526;-72
2022/08/17 01:55:55;;;;;;;44.10;32.47;;;18.90;99.90;;;;;;5066887;28;20024;-74
2022/08/17 01:58:21;;;;;;;45.10;32.60;;;18.80;99.90;;;;;;5083159;28;20035;-74
2022/08/17 02:00:50;;;;;;;42.67;31.20;;;18.80;99.90;;;;;;5070252;28;20352;-74
2022/08/17 02:03:18;;;;;;;49.55;32.00;;;18.80;99.90;;;;;;5084352;28;20047;-72
2022/08/17 02:05:47;;;;;;;51.78;34.38;;;18.80;99.90;;;;;;5072434;28;20043;-73
2022/08/17 02:08:13;;;;;;;49.50;34.00;;;18.80;99.90;;;;;;5072481;28;20050;-73
2022/08/17 02:10:39;;;;;;;46.60;33.72;;;18.80;99.90;;;;;;5084196;28;20441;-72
2022/08/17 02:13:05;;;;;;;44.25;31.20;;;18.80;99.90;;;;;;5089067;28;20057;-74
2022/08/17 02:15:33;;;;;;;41.05;30.65;;;18.80;99.90;;;;;;5070396;28;20050;-73
2022/08/17 02:18:00;;;;;;;49.70;31.98;;;18.70;99.90;;;;;;5093586;28;20119;-74
2022/08/17 02:20:27;;;;;;;40.83;30.17;;;18.70;99.90;;;;;;5071398;28;20055;-73
2022/08/17 02:22:53;;;;;;;39.20;29.98;;;18.60;99.90;;;;;;5089610;28;20039;-74
2022/08/17 02:25:19;;;;;;;42.28;28.63;;;18.70;99.90;;;;;;5084860;28;20113;-73
2022/08/17 02:27:45;;;;;;;37.55;28.67;;;18.60;99.90;;;;;;5089808;28;20035;-73
2022/08/17 02:30:13;;;;;;;39.25;28.85;;;18.60;99.90;;;;;;5084022;28;20027;-72
2022/08/17 02:32:39;;;;;;;39.72;28.95;;;18.60;99.90;;;;;;5067077;28;20054;-74
2022/08/17 02:35:05;;;;;;;41.78;29.73;;;18.60;99.90;;;;;;5067408;28;20557;-73
2022/08/17 02:37:32;;;;;;;51.33;35.20;;;18.50;99.90;;;;;;5071481;28;20075;-73
2022/08/17 02:39:58;;;;;;;50.88;34.42;;;18.60;99.90;;;;;;5086394;28;20027;-73
2022/08/17 02:42:32;;;;;;;56.33;35.47;;;18.60;99.90;;;;;;5064147;28;20040;-73
2022/08/17 02:44:59;;;;;;;54.80;37.53;;;18.60;99.90;;;;;;5064337;28;20043;-72
2022/08/17 02:47:25;;;;;;;45.95;34.38;;;18.70;99.90;;;;;;5089837;28;20040;-74
2022/08/17 02:49:52;;;;;;;53.55;36.60;;;18.70;99.90;;;;;;5086270;28;20509;-72
2022/08/17 02:52:17;;;;;;;48.33;35.00;;;18.70;99.90;;;;;;5088089;28;20028;-75
2022/08/17 02:54:43;;;;;;;53.08;34.25;;;18.70;99.90;;;;;;5084539;28;20050;-73
2022/08/17 02:57:10;;;;;;;47.85;34.13;;;18.70;99.90;;;;;;5084329;28;20809;-73
2022/08/17 02:59:39;;;;;;;53.28;37.80;;;18.70;99.90;;;;;;5090152;28;20040;-73
2022/08/17 03:02:07;;;;;;;55.92;37.33;;;18.80;99.90;;;;;;5101163;28;20050;-75
2022/08/17 03:04:33;;;;;;;65.40;37.17;;;18.80;99.90;;;;;;5081000;28;20089;-73
2022/08/17 03:06:59;;;;;;;57.45;36.28;;;18.80;99.90;;;;;;5078755;28;20031;-75
2022/08/17 03:09:25;;;;;;;58.33;37.42;;;18.80;99.90;;;;;;5086978;28;20065;-73
2022/08/17 03:11:50;;;;;;;71.47;40.72;;;18.80;99.90;;;;;;5088733;28;20052;-73
2022/08/17 03:14:17;;;;;;;65.00;39.15;;;18.70;99.90;;;;;;5088994;28;20062;-72
2022/08/17 03:16:43;;;;;;;73.28;42.65;;;18.80;99.90;;;;;;5089816;27;20109;-72
2022/08/17 03:19:09;;;;;;;81.80;44.10;;;18.80;99.90;;;;;;5090481;28;20471;-74
2022/08/17 03:21:34;;;;;;;85.93;43.72;;;18.80;99.90;;;;;;5091704;28;20105;-73
2022/08/17 03:24:00;;;;;;;90.95;45.22;;;18.80;99.90;;;;;;5091071;28;20440;-75
2022/08/17 03:26:26;;;;;;;91.03;44.72;;;18.80;99.90;;;;;;5092344;28;20080;-74
2022/08/17 03:28:52;;;;;;;77.63;44.25;;;18.80;99.90;;;;;;5085030;28;20062;-73
2022/08/17 03:31:19;;;;;;;93.75;46.13;;;18.80;99.90;;;;;;5093163;28;20402;-74
2022/08/17 03:33:45;;;;;;;92.15;46.13;;;18.80;99.90;;;;;;5072923;28;20040;-73
2022/08/17 03:36:10;;;;;;;99.60;47.90;;;18.70;99.90;;;;;;5075107;28;20078;-73
2022/08/17 03:38:36;;;;;;;79.45;44.58;;;18.80;99.90;;;;;;5085086;28;20035;-73
2022/08/17 03:41:04;;;;;;;93.25;45.33;;;18.80;99.90;;;;;;5091788;28;20443;-73
2022/08/17 03:43:34;;;;;;;81.85;44.08;;;18.80;99.90;;;;;;5085277;28;20561;-72
2022/08/17 03:57:07;;;;;;;72.05;42.63;;;18.60;99.90;;;;;;5082736;28;20031;-73
2022/08/17 03:59:33;;;;;;;;;;;18.70;99.90;;;;;;5072516;28;20035;-74
2022/08/17 04:02:08;;;;;;;64.78;41.67;;;18.80;99.90;;;;;;5073941;28;20282;-72
2022/08/17 04:04:35;;;;;;;76.57;43.13;;;18.80;99.90;;;;;;5072640;28;20142;-74
2022/08/17 04:07:00;;;;;;;87.15;45.15;;;18.80;99.90;;;;;;5089124;28;20429;-73
2022/08/17 04:09:26;;;;;;;68.43;42.80;;;18.70;99.90;;;;;;5065585;28;20112;-73
2022/08/17 04:11:52;;;;;;;85.25;44.83;;;18.70;99.90;;;;;;5083253;28;20498;-73
2022/08/17 04:14:18;;;;;;;76.05;43.30;;;18.70;99.90;;;;;;5067727;28;20096;-74
2022/08/17 04:16:45;;;;;;;72.97;40.65;;;18.60;99.90;;;;;;5079889;28;20486;-73
2022/08/17 04:19:11;;;;;;;70.50;41.17;;;18.60;99.90;;;;;;5086886;28;20039;-72
2022/08/17 04:21:37;;;;;;;65.25;39.78;;;18.60;99.90;;;;;;5083531;28;20842;-72
2022/08/17 04:24:03;;;;;;;72.25;42.33;;;18.60;99.90;;;;;;5082837;28;20055;-73
2022/08/17 04:26:29;;;;;;;71.32;41.30;;;18.60;99.90;;;;;;5087330;28;20114;-73
2022/08/17 04:28:57;;;;;;;85.50;44.15;;;18.60;99.90;;;;;;5085640;28;20131;-72
2022/08/17 04:31:24;;;;;;;74.75;41.78;;;18.60;99.90;;;;;;5089618;28;20052;-73
2022/08/17 04:33:50;;;;;;;72.60;40.72;;;18.60;99.90;;;;;;5082890;28;20869;-73
2022/08/17 04:36:16;;;;;;;75.75;43.78;;;18.60;99.90;;;;;;5081599;28;20028;-74
2022/08/17 04:38:44;;;;;;;79.22;43.53;;;18.60;99.90;;;;;;5081764;28;20043;-74
2022/08/17 04:43:57;;;;;;;95.53;47.13;;;18.60;99.90;;;;;;5088222;28;20056;-73
2022/08/17 04:46:31;;;;;;;86.25;45.15;;;18.60;99.90;;;;;;5074290;28;20438;-73
2022/08/17 04:48:58;;;;;;;86.97;45.80;;;18.60;99.90;;;;;;5097425;28;20118;-73
2022/08/17 04:51:44;;;;;;;88.47;44.75;;;18.70;99.90;;;;;;5083467;28;20036;-75
2022/08/17 04:54:15;;;;;;;82.43;41.95;;;18.70;99.90;;;;;;5089366;28;20035;-72
2022/08/17 04:56:41;;;;;;;79.55;42.15;;;18.70;99.90;;;;;;5085775;28;20055;-72
2022/08/17 04:59:10;;;;;;;80.68;41.47;;;18.70;99.90;;;;;;5080280;28;20489;-73
2022/08/17 05:01:38;;;;;;;77.40;40.90;;;18.70;99.90;;;;;;5098992;28;20035;-71
2022/08/17 05:04:06;;;;;;;71.20;39.35;;;18.80;99.90;;;;;;5081129;28;20069;-72
2022/08/17 05:06:33;;;;;;;62.15;38.38;;;18.90;99.90;;;;;;5084600;28;20067;-71
2022/08/17 05:09:00;;;;;;;68.60;40.45;;;18.90;99.90;;;;;;5086456;28;20442;-74
2022/08/17 05:11:27;;;;;;;60.15;38.22;;;19.00;99.90;;;;;;5071986;28;20043;-74
2022/08/17 05:13:54;;;;;;;60.63;34.25;;;19.00;99.90;;;;;;5089249;28;20040;-71
2022/08/17 05:16:21;;;;;;;58.75;37.55;;;19.00;99.90;;;;;;5086561;28;20443;-74
2022/08/17 05:18:47;;;;;;;58.33;37.58;;;19.10;99.90;;;;;;5086926;28;20339;-74
2022/08/17 05:21:34;;;;;;;65.35;37.08;;;19.10;99.90;;;;;;5086165;28;20039;-71
2022/08/17 05:24:00;;;;;;;64.30;39.03;;;19.10;99.90;;;;;;5077318;28;20039;-71
2022/08/17 05:26:26;;;;;;;64.75;39.58;;;19.10;99.90;;;;;;5096455;28;21839;-72
2022/08/17 05:28:53;;;;;;;61.55;39.53;;;19.10;99.90;;;;;;5092496;28;20047;-71
2022/08/17 05:31:18;;;;;;;66.88;40.03;;;19.10;99.90;;;;;;5107775;28;20059;-71
2022/08/17 05:33:44;;;;;;;69.40;40.40;;;19.10;99.90;;;;;;5077076;28;20058;-72
2022/08/17 05:36:13;;;;;;;62.13;39.13;;;19.10;99.90;;;;;;5092834;27;20043;-73
2022/08/17 05:38:39;;;;;;;64.75;39.60;;;19.10;99.90;;;;;;5082592;28;20052;-72
2022/08/17 05:41:06;;;;;;;64.18;40.10;;;19.10;99.90;;;;;;5088189;28;20040;-71
2022/08/17 05:43:35;;;;;;;63.33;39.75;;;19.10;99.90;;;;;;5089364;28;20044;-73
2022/08/17 05:46:07;;;;;;;57.72;38.65;;;19.20;99.90;;;;;;5070667;28;20040;-72
2022/08/17 05:48:37;;;;;;;56.67;37.25;;;19.10;99.90;;;;;;5064392;28;20059;-72
2022/08/17 05:51:28;;;;;;;62.72;39.10;;;19.20;99.90;;;;;;5080441;28;20060;-73
2022/08/17 05:54:14;;;;;;;57.50;38.08;;;19.10;99.90;;;;;;5080627;28;20082;-72
2022/08/17 05:56:45;;;;;;;50.00;35.10;;;19.20;99.90;;;;;;5083134;28;20405;-75
2022/08/17 05:59:35;;;;;;;52.60;34.95;;;19.20;99.90;;;;;;5096461;28;20036;-73
2022/08/17 06:02:10;;;;;;;52.05;36.42;;;19.30;99.90;;;;;;5099008;28;20147;-73
2022/08/17 06:05:02;;;;;;;60.33;37.75;;;19.30;99.90;;;;;;5082251;28;20035;-74
2022/08/17 06:07:31;;;;;;;53.10;37.05;;;19.30;99.90;;;;;;5081979;28;20047;-74
2022/08/17 06:10:29;;;;;;;57.38;37.40;;;19.30;99.90;;;;;;5069422;28;20047;-75
2022/08/17 06:13:05;;;;;;;51.40;36.67;;;19.30;99.90;;;;;;5091782;28;20164;-74
2022/08/17 06:15:52;;;;;;;50.53;34.78;;;19.40;99.90;;;;;;5079966;28;20082;-74
2022/08/17 06:18:21;;;;;;;59.55;38.85;;;19.50;99.90;;;;;;5086683;28;20389;-73
2022/08/17 06:21:01;;;;;;;54.50;38.55;;;19.50;99.90;;;;;;5087861;28;20486;-72
2022/08/17 06:23:37;;;;;;;59.22;39.05;;;19.50;99.90;;;;;;5083592;28;20455;-73
2022/08/17 06:26:16;;;;;;;64.72;41.17;;;19.50;99.90;;;;;;5078488;28;20487;-73
2022/08/17 06:29:16;;;;;;;58.58;40.30;;;19.50;99.90;;;;;;5078416;28;20059;-74
2022/08/17 06:31:42;;;;;;;66.70;42.55;;;19.50;99.90;;;;;;5077795;28;20071;-75
2022/08/17 06:34:10;;;;;;;71.55;43.05;;;19.50;99.90;;;;;;5063113;28;20039;-72
2022/08/17 06:37:01;;;;;;;74.88;44.28;;;19.60;99.90;;;;;;5075123;28;20604;-75
2022/08/17 06:39:33;;;;;;;83.18;47.20;;;19.60;99.90;;;;;;5079460;28;20074;-74
2022/08/17 06:42:05;;;;;;;72.32;43.95;;;19.60;99.90;;;;;;5061988;28;20044;-75
2022/08/17 06:44:40;;;;;;;70.75;44.97;;;19.70;99.90;;;;;;5078424;28;20431;-74
2022/08/17 06:47:14;;;;;;;71.53;45.33;;;19.70;99.90;;;;;;5083876;28;20056;-75
2022/08/17 06:49:48;;;;;;;69.68;45.03;;;19.70;99.90;;;;;;5086266;28;20067;-74
2022/08/17 06:52:28;;;;;;;78.75;46.95;;;19.80;99.90;;;;;;5085207;28;20104;-75
2022/08/17 06:55:06;;;;;;;74.07;47.58;;;19.70;99.90;;;;;;5098354;28;20050;-75
2022/08/17 06:57:36;;;;;;;70.20;46.53;;;19.70;99.90;;;;;;5083031;28;20080;-74
2022/08/17 07:00:07;;;;;;;97.68;49.53;;;19.80;99.90;;;;;;5085642;28;20031;-74
2022/08/17 07:02:47;;;;;;;77.10;49.60;;;19.80;99.90;;;;;;5088416;28;20077;-74
2022/08/17 07:05:15;;;;;;;81.53;48.60;;;19.90;99.90;;;;;;5081021;28;20146;-73
2022/08/17 07:08:03;;;;;;;71.25;47.40;;;19.90;99.90;;;;;;5081245;28;20048;-73
2022/08/17 07:10:49;;;;;;;71.30;46.22;;;20.00;99.90;;;;;;5078666;28;20122;-73
2022/08/17 07:13:14;;;;;;;72.85;47.05;;;20.10;99.90;;;;;;5059378;28;20063;-72
2022/08/17 07:15:41;;;;;;;82.85;49.65;;;20.00;99.90;;;;;;5079656;28;20082;-73
2022/08/17 07:18:08;;;;;;;84.03;52.03;;;20.00;99.90;;;;;;5079187;28;20057;-74
2022/08/17 07:20:36;;;;;;;82.88;52.03;;;20.00;99.90;;;;;;5082312;28;20071;-75
2022/08/17 07:23:16;;;;;;;82.90;50.83;;;19.90;99.90;;;;;;5080491;28;20043;-72
2022/08/17 07:25:41;;;;;;;81.85;49.58;;;20.10;99.90;;;;;;5075634;28;20039;-75
2022/08/17 07:28:07;;;;;;;74.47;48.67;;;20.10;99.90;;;;;;5076907;28;20475;-73
2022/08/17 07:30:59;;;;;;;79.97;47.83;;;20.10;99.90;;;;;;5064045;28;20663;-75
2022/08/17 07:33:28;;;;;;;77.35;48.13;;;20.20;99.90;;;;;;5077524;28;20542;-74
2022/08/17 07:35:56;;;;;;;76.60;48.30;;;20.10;99.90;;;;;;5097506;28;20085;-73
2022/08/17 07:38:34;;;;;;;75.38;48.13;;;20.20;99.90;;;;;;5074541;28;20123;-73
2022/08/17 07:41:04;;;;;;;76.50;46.13;;;20.20;99.90;;;;;;5076213;28;20040;-73
2022/08/17 07:43:39;;;;;;;75.30;47.22;;;20.30;99.90;;;;;;5074916;28;20056;-73
2022/08/17 07:49:14;;;;;;;86.55;52.13;;;20.30;99.90;;;;;;5082868;28;20351;-74
2022/08/17 07:51:44;;;;;;;79.03;51.33;;;20.30;99.90;;;;;;5074472;28;20051;-73
2022/08/17 07:54:24;;;;;;;83.32;52.83;;;20.40;99.90;;;;;;5082367;28;20071;-74
2022/08/17 07:57:13;;;;;;;77.00;50.65;;;20.50;99.90;;;;;;5086362;28;20113;-73
2022/08/17 07:59:58;;;;;;;81.90;52.78;;;20.50;99.90;;;;;;5081533;28;20055;-72
2022/08/17 08:02:37;;;;;;;87.00;52.65;;;20.60;99.90;;;;;;5060441;28;20367;-75
2022/08/17 08:05:26;;;;;;;77.82;51.00;;;20.80;99.90;;;;;;5080507;28;20063;-74
2022/08/17 08:08:24;;;;;;;75.20;48.92;;;20.90;99.90;;;;;;5010137;28;20076;-74
2022/08/17 08:10:59;;;;;;;78.60;52.17;;;21.00;99.90;;;;;;5004097;28;20121;-73
2022/08/17 08:13:28;;;;;;;80.70;50.05;;;21.10;99.90;;;;;;5011951;28;20057;-72
2022/08/17 08:16:12;;;;;;;82.05;50.53;;;21.20;99.90;;;;;;5015473;28;20088;-72
2022/08/17 08:18:44;;;;;;;78.57;51.70;;;21.10;99.90;;;;;;5008694;28;20038;-72
2022/08/17 08:21:30;;;;;;;72.53;48.90;;;21.30;99.90;;;;;;4991719;28;20128;-74
2022/08/17 08:24:08;;;;;;;71.57;47.03;;;21.10;99.90;;;;;;5008509;28;20409;-72
2022/08/17 08:26:55;;;;;;;74.22;49.28;;;21.20;99.90;;;;;;5015721;28;20049;-72
2022/08/17 08:29:46;;;;;;;67.45;48.17;;;21.30;99.90;;;;;;5007770;28;20128;-74
2022/08/17 08:32:18;;;;;;;58.25;42.55;;;21.30;99.90;;;;;;5000403;28;20117;-73
2022/08/17 08:35:01;;;;;;;62.00;44.95;;;21.30;99.90;;;;;;5013739;28;20392;-75
2022/08/17 08:37:55;;;;;;;62.95;44.67;;;21.30;99.90;;;;;;5014229;28;20093;-75
2022/08/17 08:40:49;;;;;;;57.78;43.15;;;21.40;99.90;;;;;;5015926;28;20064;-73
2022/08/17 08:43:43;;;;;;;62.65;45.10;;;21.40;99.90;;;;;;5010450;28;20061;-75
2022/08/17 08:46:27;;;;;;;59.17;43.40;;;21.50;99.90;;;;;;5089669;28;20062;-75
2022/08/17 08:49:12;;;;;;;64.03;42.78;;;21.40;99.90;;;;;;5067247;28;20140;-72
2022/08/17 08:51:45;;;;;;;57.47;44.05;;;21.50;99.90;;;;;;5079727;28;20056;-72
2022/08/17 08:54:42;;;;;;;62.55;44.03;;;21.60;99.90;;;;;;5085556;28;20047;-74
2022/08/17 08:57:23;;;;;;;58.40;43.40;;;21.70;99.90;;;;;;5083085;28;20570;-73
2022/08/17 08:59:55;;;;;;;60.88;42.95;;;21.60;99.90;;;;;;5087036;28;20115;-73
2022/08/17 09:02:30;;;;;;;51.65;39.28;;;21.70;99.90;;;;;;5080073;28;20138;-73
2022/08/17 09:05:40;;;;;;;54.55;39.40;;;21.70;99.90;;;;;;5053457;28;20179;-73
2022/08/17 09:08:44;;;;;;;48.25;38.22;;;21.70;99.90;;;;;;4993113;28;20546;-73
2022/08/17 09:11:12;;;;;;;45.47;35.50;;;21.90;99.90;;;;;;4996533;28;20102;-73
2022/08/17 09:13:50;;;;;;;44.55;36.63;;;22.00;99.90;;;;;;4977729;28;20380;-74
2022/08/17 09:16:28;;;;;;;45.97;36.00;;;22.00;99.90;;;;;;4977932;28;20452;-74
2022/08/17 09:19:29;;;;;;;46.53;33.85;;;22.10;99.90;;;;;;4981526;28;20114;-75
2022/08/17 09:22:02;;;;;;;40.10;32.25;;;22.10;99.90;;;;;;4976465;28;20054;-73
2022/08/17 09:24:42;;;;;;;34.55;30.05;;;22.20;99.90;;;;;;4993582;28;20217;-72
2022/08/17 09:27:08;;;;;;;36.38;30.35;;;22.20;99.90;;;;;;4975821;28;20128;-73
2022/08/17 09:29:41;;;;;;;37.83;31.10;;;22.30;99.90;;;;;;4981244;28;20101;-74
2022/08/17 09:32:23;;;;;;;41.03;31.42;;;22.40;99.90;;;;;;4962650;28;20042;-73
2022/08/17 09:34:53;;;;;;;40.17;32.70;;;22.50;99.90;;;;;;4984131;28;20054;-74
2022/08/17 09:37:44;;;;;;;38.80;31.27;;;22.70;99.90;;;;;;4984399;28;20052;-73
2022/08/17 09:40:27;;;;;;;42.38;33.10;;;22.80;99.90;;;;;;4991546;28;20049;-74
2022/08/17 09:43:25;;;;;;;36.42;30.83;;;22.90;99.90;;;;;;5004863;28;20035;-74
2022/08/17 09:45:56;;;;;;;39.05;30.77;;;23.00;99.90;;;;;;5077734;28;20062;-74
2022/08/17 09:48:29;;;;;;;40.22;32.63;;;22.90;99.90;;;;;;5062637;28;20455;-73
2022/08/17 09:51:02;;;;;;;37.92;31.42;;;22.80;99.90;;;;;;5063908;28;20161;-74
2022/08/17 09:53:29;;;;;;;34.30;30.60;;;22.80;99.90;;;;;;5077513;28;20164;-74
2022/08/17 09:56:12;;;;;;;36.40;30.75;;;22.60;99.90;;;;;;5077675;28;20048;-74
2022/08/17 09:59:08;;;;;;;37.88;28.73;;;22.60;99.90;;;;;;5083063;28;20635;-74
2022/08/17 10:01:44;;;;;;;35.03;29.92;;;22.60;99.90;;;;;;5077934;28;20499;-73
2022/08/17 10:04:10;;;;;;;35.45;27.63;;;22.80;99.90;;;;;;5082676;28;20136;-74
2022/08/17 10:07:04;;;;;;;35.33;30.00;;;22.80;99.90;;;;;;5079298;28;20139;-74
2022/08/17 10:09:41;;;;;;;37.75;31.42;;;22.90;99.90;;;;;;5075396;28;20458;-74
2022/08/17 10:12:35;;;;;;;36.40;29.70;;;22.80;99.90;;;;;;5076441;28;20059;-73
2022/08/17 10:15:03;;;;;;;35.88;29.55;;;22.70;99.90;;;;;;5075710;28;20147;-74
2022/08/17 10:17:52;;;;;;;36.30;30.40;;;22.50;99.90;;;;;;5067809;28;20044;-76
2022/08/17 10:20:38;;;;;;;35.47;29.73;;;22.50;99.90;;;;;;5060495;28;20036;-74
2022/08/17 10:26:19;;;;;;;33.97;28.40;;;22.30;99.90;;;;;;5081705;28;20074;-75
2022/08/17 10:28:54;;;;;;;35.25;28.30;;;22.20;99.90;;;;;;5070049;28;20064;-74
2022/08/17 10:31:27;;;;;;;33.90;26.80;;;22.20;99.90;;;;;;5071943;28;20060;-73
2022/08/17 10:34:20;;;;;;;31.13;26.67;;;22.20;99.90;;;;;;5072315;28;20526;-74
2022/08/17 10:37:12;;;;;;;34.15;27.88;;;22.40;99.90;;;;;;5074079;28;20043;-75
2022/08/17 10:40:16;;;;;;;34.88;26.80;;;22.50;99.90;;;;;;5061501;28;20056;-76
2022/08/17 10:42:55;;;;;;;30.90;25.52;;;22.50;99.90;;;;;;5055957;28;20038;-74
2022/08/17 10:45:32;;;;;;;32.20;26.73;;;22.60;99.90;;;;;;5076492;28;20044;-74
2022/08/17 10:48:04;;;;;;;32.90;25.90;;;22.70;99.90;;;;;;5070439;28;20083;-74
2022/08/17 10:50:46;;;;;;;33.63;25.65;;;22.80;99.90;;;;;;5071370;28;20097;-74
2022/08/17 10:53:32;;;;;;;29.30;23.63;;;23.10;99.90;;;;;;5071828;28;20054;-74
2022/08/17 10:56:13;;;;;;;34.33;24.23;;;23.20;99.90;;;;;;5063882;28;21011;-74
2022/08/17 10:58:54;;;;;;;26.42;22.48;;;23.30;99.90;;;;;;5050162;28;20044;-77
2022/08/17 11:01:28;;;;;;;32.00;22.63;;;23.40;99.90;;;;;;5080047;28;20040;-76
2022/08/17 11:03:57;;;;;;;29.65;23.80;;;23.50;99.90;;;;;;5088926;28;20073;-75
2022/08/17 11:06:48;;;;;;;27.75;22.92;;;23.30;99.90;;;;;;5081203;28;20079;-77
2022/08/17 11:09:22;;;;;;;33.60;22.70;;;23.30;99.90;;;;;;5063019;28;20044;-75
2022/08/17 11:11:54;;;;;;;31.85;23.38;;;23.40;99.90;;;;;;5058987;28;20048;-77
2022/08/17 11:14:50;;;;;;;26.58;21.20;;;23.30;99.90;;;;;;5074715;28;20067;-74
2022/08/17 11:17:34;;;;;;;26.23;21.63;;;23.40;99.90;;;;;;5084276;28;20324;-74
2022/08/17 11:20:28;;;;;;;29.13;20.35;;;23.70;99.90;;;;;;5072459;28;20086;-75
2022/08/17 11:23:28;;;;;;;23.20;18.75;;;23.90;99.90;;;;;;5079019;28;20047;-75
2022/08/17 11:25:57;;;;;;;24.15;17.55;;;23.90;99.90;;;;;;5092980;28;20055;-75
2022/08/17 11:28:34;;;;;;;21.35;16.90;;;24.10;99.90;;;;;;5094023;28;20074;-75
2022/08/17 11:31:32;;;;;;;23.52;16.73;;;24.10;99.90;;;;;;5094135;28;20062;-75
2022/08/17 11:34:03;;;;;;;21.05;15.13;;;23.90;99.90;;;;;;5048000;28;20485;-75
2022/08/17 11:36:46;;;;;;;18.35;13.05;;;24.00;99.90;;;;;;5033718;28;20196;-76
2022/08/17 11:39:31;;;;;;;16.15;11.70;;;23.90;99.90;;;;;;5030969;28;20060;-76
2022/08/17 11:42:24;;;;;;;19.75;11.52;;;23.80;99.90;;;;;;5026425;28;20053;-77
2022/08/17 11:45:09;;;;;;;18.67;10.90;;;23.80;99.90;;;;;;5039437;28;20496;-78
2022/08/17 11:53:37;;;;;;;16.92;10.30;;;24.20;99.90;;;;;;5031405;28;20072;-75
2022/08/17 11:56:08;;;;;;;12.25;8.88;;;24.00;99.90;;;;;;5011625;28;20044;-77
2022/08/17 11:58:43;;;;;;;15.10;10.00;;;24.00;99.90;;;;;;5035804;28;20057;-77
2022/08/17 12:01:21;;;;;;;15.05;9.45;;;23.90;99.90;;;;;;5034251;28;20048;-77
2022/08/17 12:03:53;;;;;;;15.70;9.48;;;23.80;99.90;;;;;;5041197;28;20540;-75
2022/08/17 12:06:40;;;;;;;15.68;9.60;;;23.70;99.90;;;;;;5039843;28;20551;-75
2022/08/17 12:09:18;;;;;;;12.73;8.98;;;23.80;99.90;;;;;;5034210;28;20057;-77
2022/08/17 12:12:10;;;;;;;15.98;9.10;;;24.10;99.90;;;;;;5062787;28;20063;-75
2022/08/17 12:14:39;;;;;;;12.05;9.00;;;24.10;99.90;;;;;;5013574;28;20612;-78
2022/08/17 12:17:10;;;;;;;12.55;10.20;;;24.30;99.90;;;;;;5010353;28;20056;-73
2022/08/17 12:19:37;;;;;;;10.65;8.77;;;24.30;99.90;;;;;;5006466;28;20041;-74
2022/08/17 12:22:16;;;;;;;10.70;8.80;;;24.10;99.90;;;;;;4991274;28;20069;-75
2022/08/17 12:25:10;;;;;;;10.82;8.90;;;24.20;99.90;;;;;;4992934;28;20050;-75
2022/08/17 12:27:43;;;;;;;18.38;7.57;;;24.10;99.90;;;;;;5012472;28;20048;-75
2022/08/17 12:30:11;;;;;;;11.30;8.43;;;24.10;99.90;;;;;;5010998;28;20049;-76
2022/08/17 12:32:39;;;;;;;19.20;9.23;;;24.00;99.90;;;;;;5009710;28;20049;-75
2022/08/17 12:35:28;;;;;;;13.27;8.82;;;24.00;99.90;;;;;;5010075;28;20092;-75
2022/08/17 12:37:58;;;;;;;13.30;9.02;;;24.10;99.90;;;;;;5034859;28;20080;-76
2022/08/17 12:40:30;;;;;;;12.38;9.05;;;24.20;99.90;;;;;;5006779;28;20123;-75
2022/08/17 12:43:18;;;;;;;15.35;9.75;;;24.30;99.90;;;;;;5023378;28;20046;-76
2022/08/17 12:45:58;;;;;;;17.08;11.02;;;24.20;99.90;;;;;;5026250;28;20570;-75
2022/08/17 12:48:26;;;;;;;19.45;11.55;;;24.20;99.90;;;;;;5007432;28;20154;-76
2022/08/17 12:50:59;;;;;;;14.45;9.20;;;24.40;99.90;;;;;;5025430;28;20363;-75
2022/08/17 12:53:29;;;;;;;17.15;9.02;;;24.20;99.90;;;;;;5091103;28;20085;-75
2022/08/17 12:55:57;;;;;;;11.95;8.90;;;23.90;99.90;;;;;;5091618;28;20038;-74
2022/08/17 12:58:27;;;;;;;13.50;9.32;;;23.80;99.90;;;;;;5069712;28;20164;-74
2022/08/17 13:01:16;;;;;;;15.02;9.18;;;23.80;99.90;;;;;;5089216;28;20124;-76
2022/08/17 13:03:48;;;;;;;14.52;9.40;;;23.80;99.90;;;;;;5009316;28;20132;-76
2022/08/17 13:06:28;;;;;;;20.45;10.77;;;23.60;99.90;;;;;;4989166;28;20057;-76
2022/08/17 13:08:54;;;;;;;17.88;10.35;;;23.80;99.90;;;;;;5005187;28;20081;-75
2022/08/17 13:11:23;;;;;;;14.35;10.60;;;23.80;99.90;;;;;;5014560;28;20088;-74
2022/08/17 13:13:53;;;;;;;16.90;9.73;;;23.70;99.90;;;;;;5011639;28;20041;-76
2022/08/17 13:16:25;;;;;;;16.30;10.60;;;23.80;99.90;;;;;;5007727;28;20509;-75
2022/08/17 13:19:06;;;;;;;14.02;9.85;;;23.90;99.90;;;;;;5008281;28;20127;-74
2022/08/17 13:21:33;;;;;;;11.52;8.82;;;23.80;99.90;;;;;;4990888;28;20072;-76
2022/08/17 13:24:00;;;;;;;11.88;9.60;;;23.90;99.90;;;;;;5009474;28;20140;-76
2022/08/17 13:26:44;;;;;;;17.02;10.02;;;23.90;99.90;;;;;;5006085;28;20085;-75
2022/08/17 13:29:24;;;;;;;16.70;9.35;;;23.80;99.90;;;;;;5002462;28;20049;-75